Time;durP1;ratioP1;P1;durP2;ratioP2;P2;SDS_P1;SDS_P2;PMS_P1;PMS_P2;Temp;Humidity;BMP_temperature;BMP_pressure;BME280_temperature;BME280_humidity;BME280_pressure;Samples;Min_cycle;Max_cycle;Signal;HPM_P1;HPM_P2
2023/12/05 00:01:24;;;;;;;19.02;8.23;;;;;;;-7.67;94.60;101023.34;10443396;28;20513;-62
2023/12/05 00:06:26;;;;;;;18.67;8.20;;;;;;;-7.57;95.63;101025.94;10435871;28;20041;-61
2023/12/05 00:11:34;;;;;;;20.42;8.55;;;;;;;-7.49;95.93;101044.63;10441809;28;20033;-61
2023/12/05 00:16:37;;;;;;;25.13;8.07;;;;;;;-7.44;96.36;101041.53;10442662;28;20070;-61
2023/12/05 00:21:39;;;;;;;19.63;7.88;;;;;;;-7.63;96.77;101048.72;10441195;28;20429;-61
2023/12/05 00:26:41;;;;;;;20.92;9.05;;;;;;;-7.58;96.65;101047.41;10439845;28;20405;-62
2023/12/05 00:31:44;;;;;;;22.95;8.07;;;;;;;-7.63;97.62;101048.72;10441973;28;20041;-61
2023/12/05 00:36:46;;;;;;;20.73;8.50;;;;;;;-7.82;97.44;101054.16;10439072;28;20545;-61
2023/12/05 00:41:48;;;;;;;19.55;8.38;;;;;;;-7.94;98.47;101050.06;10420596;28;20540;-61
2023/12/05 00:46:51;;;;;;;22.85;9.63;;;;;;;-8.05;98.41;101053.78;10440413;28;20531;-61
2023/12/05 00:51:53;;;;;;;23.85;9.40;;;;;;;-8.21;98.83;101051.78;10438032;28;20416;-61
2023/12/05 00:56:56;;;;;;;25.75;10.63;;;;;;;-8.12;98.79;101059.88;10441417;28;20038;-61
2023/12/05 01:01:58;;;;;;;23.60;8.90;;;;;;;-8.13;99.41;101061.69;10438813;28;20040;-61
2023/12/05 01:07:00;;;;;;;25.20;9.68;;;;;;;-8.11;99.74;101069.53;10440951;28;20030;-61
2023/12/05 01:12:03;;;;;;;22.75;9.02;;;;;;;-8.04;98.78;101070.59;10437317;28;20044;-60
2023/12/05 01:17:05;;;;;;;23.75;9.57;;;;;;;-7.87;99.05;101068.94;10445584;28;20163;-61
2023/12/05 01:22:08;;;;;;;25.52;9.30;;;;;;;-7.82;98.64;101074.63;10443665;28;20045;-60
2023/12/05 01:27:10;;;;;;;26.08;9.15;;;;;;;-7.57;98.82;101089.06;10438855;28;20508;-62
2023/12/05 01:32:14;;;;;;;24.23;9.05;;;;;;;-7.64;98.29;101081.66;10440914;28;20048;-60
2023/12/05 01:37:17;;;;;;;24.65;8.73;;;;;;;-7.57;97.89;101087.22;10441223;28;20029;-60
2023/12/05 01:42:19;;;;;;;27.25;9.52;;;;;;;-7.72;96.51;101092.25;10437519;28;20149;-60
2023/12/05 01:47:23;;;;;;;25.70;9.45;;;;;;;-7.94;96.77;101082.88;10438229;28;20049;-61
2023/12/05 01:52:26;;;;;;;26.02;9.32;;;;;;;-7.84;96.57;101096.09;10451275;28;20048;-60
2023/12/05 01:57:29;;;;;;;25.15;10.60;;;;;;;-7.90;96.35;101102.03;10455771;28;20037;-60
2023/12/05 02:02:35;;;;;;;26.58;10.18;;;;;;;-7.74;96.74;101104.03;10437311;28;20421;-60
2023/12/05 02:07:38;;;;;;;25.42;9.48;;;;;;;-7.64;96.48;101110.13;10440048;28;20053;-60
2023/12/05 02:12:45;;;;;;;24.58;9.68;;;;;;;-7.69;96.10;101102.59;10464106;28;20056;-60
2023/12/05 02:17:57;;;;;;;24.80;10.98;;;;;;;-7.38;95.90;101104.88;10444418;28;20038;-60
2023/12/05 02:23:01;;;;;;;26.58;9.80;;;;;;;-7.32;95.17;101109.59;10429544;28;20460;-60
2023/12/05 02:28:03;;;;;;;29.40;10.88;;;;;;;-7.36;95.49;101113.56;10470592;28;20052;-61
2023/12/05 02:33:06;;;;;;;29.80;9.88;;;;;;;-7.35;95.32;101116.06;10444258;28;20420;-60
2023/12/05 02:38:09;;;;;;;29.77;10.50;;;;;;;-7.37;95.33;101111.88;10443815;28;20417;-61
2023/12/05 02:43:31;;;;;;;30.50;11.48;;;;;;;-7.26;95.27;101117.00;10424988;28;20053;-60
2023/12/05 02:48:34;;;;;;;30.73;11.32;;;;;;;-7.27;95.04;101125.97;10474337;28;20030;-60
2023/12/05 02:53:38;;;;;;;27.40;10.45;;;;;;;-7.34;95.19;101127.56;10476816;28;20038;-59
2023/12/05 02:58:41;;;;;;;26.70;10.30;;;;;;;-7.26;94.97;101114.31;10443770;28;20827;-61
2023/12/05 03:03:43;;;;;;;34.42;11.50;;;;;;;-7.17;95.46;101131.22;10445661;28;20045;-60
2023/12/05 03:08:47;;;;;;;33.10;11.70;;;;;;;-7.19;95.23;101125.19;10444237;28;20509;-60
2023/12/05 03:13:53;;;;;;;27.98;10.75;;;;;;;-7.26;94.74;101125.00;10444328;28;20052;-60
2023/12/05 03:18:57;;;;;;;29.90;11.15;;;;;;;-7.26;94.81;101118.81;10455477;28;20041;-62
2023/12/05 03:24:00;;;;;;;33.53;12.15;;;;;;;-7.40;95.48;101123.69;10440961;28;20481;-61
2023/12/05 03:29:03;;;;;;;36.67;13.65;;;;;;;-7.31;96.04;101119.25;10437187;28;20041;-61
2023/12/05 03:34:06;;;;;;;32.33;11.45;;;;;;;-7.20;96.02;101123.53;10440892;28;20033;-62
2023/12/05 03:39:10;;;;;;;31.48;10.90;;;;;;;-7.29;96.33;101119.94;10444233;28;20049;-61
2023/12/05 03:44:13;;;;;;;33.78;12.40;;;;;;;-7.17;97.07;101134.72;10442598;28;20057;-61
2023/12/05 03:49:16;;;;;;;30.92;11.02;;;;;;;-7.18;96.63;101133.03;10440889;28;20536;-62
2023/12/05 03:54:18;;;;;;;30.85;9.13;;;;;;;-7.11;96.85;101139.44;10438861;28;20049;-62
2023/12/05 03:59:21;;;;;;;25.83;9.52;;;;;;;-7.18;95.66;101143.72;10431478;28;20037;-61
2023/12/05 04:04:23;;;;;;;26.58;9.45;;;;;;;-7.15;95.73;101151.38;10438134;28;20044;-61
2023/12/05 04:09:26;;;;;;;26.70;9.95;;;;;;;-7.20;94.85;101159.03;10436448;28;20041;-61
2023/12/05 04:14:28;;;;;;;32.47;10.20;;;;;;;-7.09;94.49;101164.13;10441735;28;20038;-61
2023/12/05 04:19:31;;;;;;;26.02;10.23;;;;;;;-7.01;94.40;101169.53;10441732;28;20056;-61
2023/12/05 04:24:33;;;;;;;25.52;8.75;;;;;;;-7.07;94.13;101171.97;10446641;28;20064;-61
2023/12/05 04:29:37;;;;;;;29.05;10.15;;;;;;;-6.99;93.57;101175.53;10460775;28;20045;-62
2023/12/05 04:34:43;;;;;;;27.27;9.68;;;;;;;-7.12;94.19;101175.06;10442166;28;20041;-62
2023/12/05 04:39:45;;;;;;;30.48;9.40;;;;;;;-7.09;94.47;101169.47;10442161;28;20504;-63
2023/12/05 04:44:47;;;;;;;25.95;9.43;;;;;;;-7.06;94.71;101170.97;10441223;28;20051;-62
2023/12/05 04:49:50;;;;;;;31.67;9.88;;;;;;;-6.97;94.66;101174.53;10444896;28;20045;-62
2023/12/05 04:54:53;;;;;;;25.25;10.25;;;;;;;-6.94;94.45;101182.22;10440684;28;20409;-62
2023/12/05 04:59:57;;;;;;;30.85;9.98;;;;;;;-6.90;94.35;101186.28;10440313;28;20038;-62
2023/12/05 05:05:00;;;;;;;27.52;9.65;;;;;;;-6.94;93.86;101188.44;10436707;28;20048;-62
2023/12/05 05:10:02;;;;;;;26.75;8.38;;;;;;;-6.90;94.32;101188.97;10441348;28;20045;-62
2023/12/05 05:15:09;;;;;;;26.42;8.48;;;;;;;-6.82;94.69;101202.34;10441371;28;20041;-62
2023/12/05 05:20:12;;;;;;;26.13;9.13;;;;;;;-6.91;94.74;101197.94;10436355;28;20068;-62
2023/12/05 05:25:15;;;;;;;31.42;9.60;;;;;;;-6.86;94.48;101201.81;10435041;28;20037;-62
2023/12/05 05:30:17;;;;;;;28.15;9.65;;;;;;;-6.89;94.62;101207.47;10435058;28;20052;-63
2023/12/05 05:35:20;;;;;;;32.85;10.32;;;;;;;-7.03;94.97;101208.00;10431230;28;20029;-62
2023/12/05 05:40:22;;;;;;;36.92;10.98;;;;;;;-6.99;95.00;101228.88;10437202;28;20488;-62
2023/12/05 05:45:24;;;;;;;34.40;10.30;;;;;;;-6.94;95.06;101233.78;10438294;28;20049;-62
2023/12/05 05:50:27;;;;;;;48.13;14.68;;;;;;;-6.93;95.20;101239.94;10446923;28;20052;-62
2023/12/05 05:55:30;;;;;;;45.38;13.70;;;;;;;-6.94;95.00;101246.25;10447805;28;20045;-62
2023/12/05 06:00:32;;;;;;;29.27;10.50;;;;;;;-6.99;94.76;101249.38;10447298;28;20049;-62
2023/12/05 06:05:35;;;;;;;31.70;11.43;;;;;;;-7.03;94.96;101251.53;10447649;28;20417;-62
2023/12/05 06:10:37;;;;;;;29.38;10.45;;;;;;;-6.99;95.12;101260.88;10446638;28;20038;-62
2023/12/05 06:15:39;;;;;;;27.23;9.63;;;;;;;-6.84;94.98;101265.69;10447353;28;20048;-62
2023/12/05 06:20:43;;;;;;;23.50;9.15;;;;;;;-6.85;95.12;101277.38;10446633;28;20469;-62
2023/12/05 06:25:45;;;;;;;27.63;9.88;;;;;;;-6.99;94.74;101287.56;10447030;28;20519;-61
2023/12/05 06:30:48;;;;;;;26.27;8.30;;;;;;;-6.90;95.43;101293.00;10445678;28;20046;-61
2023/12/05 06:35:50;;;;;;;25.27;8.60;;;;;;;-6.82;95.58;101287.72;10446666;28;20033;-61
2023/12/05 06:40:52;;;;;;;18.33;8.13;;;;;;;-6.76;95.32;101297.81;10445078;28;20041;-61
2023/12/05 06:45:55;;;;;;;20.90;8.75;;;;;;;-6.72;94.86;101309.84;10441664;28;20041;-61
2023/12/05 06:50:57;;;;;;;15.27;6.50;;;;;;;-6.69;94.68;101304.19;10443411;28;20042;-62
2023/12/05 06:56:00;;;;;;;15.10;6.10;;;;;;;-6.56;94.68;101303.81;10445572;28;20566;-62
2023/12/05 07:01:03;;;;;;;20.67;7.57;;;;;;;-6.51;94.60;101314.88;10443876;28;20033;-61
2023/12/05 07:06:06;;;;;;;19.80;6.57;;;;;;;-6.47;94.02;101322.41;10445114;28;20029;-63
2023/12/05 07:11:08;;;;;;;14.80;5.65;;;;;;;-6.45;93.67;101322.25;10444017;28;20052;-62
2023/12/05 07:16:11;;;;;;;9.85;5.38;;;;;;;-6.42;94.15;101319.28;10442754;28;20037;-62
2023/12/05 07:21:13;;;;;;;9.15;4.90;;;;;;;-6.37;93.34;101325.00;10442712;28;20037;-62
2023/12/05 07:26:16;;;;;;;13.15;5.18;;;;;;;-6.35;93.56;101322.19;10443886;28;20029;-64
2023/12/05 07:31:20;;;;;;;13.23;7.03;;;;;;;-6.34;93.47;101329.19;10444797;28;20136;-62
2023/12/05 07:36:24;;;;;;;12.25;6.05;;;;;;;-6.30;93.03;101322.53;10419626;28;20045;-62
2023/12/05 07:41:26;;;;;;;12.77;6.30;;;;;;;-6.31;92.54;101321.72;10401752;28;20046;-62
2023/12/05 07:46:29;;;;;;;13.30;6.07;;;;;;;-6.38;93.20;101339.34;10430841;28;20052;-63
2023/12/05 07:51:31;;;;;;;17.88;7.10;;;;;;;-6.33;92.97;101344.22;10442897;28;20052;-62
2023/12/05 07:56:33;;;;;;;18.08;7.53;;;;;;;-6.52;93.18;101347.91;10442384;28;20037;-62
2023/12/05 08:01:36;;;;;;;20.23;8.60;;;;;;;-6.46;93.27;101348.13;10439582;28;20054;-62
2023/12/05 08:06:38;;;;;;;14.60;7.32;;;;;;;-6.34;93.73;101348.72;10438557;28;20034;-62
2023/12/05 08:11:41;;;;;;;20.92;7.97;;;;;;;-6.18;93.26;101356.03;10443797;28;20041;-61
2023/12/05 08:16:43;;;;;;;20.10;8.75;;;;;;;-6.14;92.52;101363.59;10445841;28;20038;-61
2023/12/05 08:21:46;;;;;;;22.08;9.43;;;;;;;-6.19;92.13;101367.72;10422036;28;20060;-61
2023/12/05 08:26:49;;;;;;;18.75;7.95;;;;;;;-6.18;92.06;101366.72;10434303;28;20501;-61
2023/12/05 08:31:51;;;;;;;17.98;7.70;;;;;;;-6.44;92.95;101372.81;10438950;28;20049;-61
2023/12/05 08:36:53;;;;;;;19.17;9.00;;;;;;;-6.35;93.27;101391.59;10423977;28;20037;-61
2023/12/05 08:41:59;;;;;;;20.80;8.63;;;;;;;-6.24;92.65;101378.88;10438379;28;20056;-62
2023/12/05 08:47:01;;;;;;;24.60;8.15;;;;;;;-6.21;92.67;101388.41;10438360;28;20217;-61
2023/12/05 08:52:04;;;;;;;17.17;6.97;;;;;;;-6.26;92.40;101385.34;10437352;28;20421;-62
2023/12/05 08:57:07;;;;;;;20.25;7.00;;;;;;;-6.28;92.17;101384.66;10438358;28;20040;-62
2023/12/05 09:02:10;;;;;;;23.45;7.95;;;;;;;-6.17;92.29;101393.28;10441526;28;20044;-61
2023/12/05 09:07:12;;;;;;;22.95;8.82;;;;;;;-6.15;92.47;101407.31;10441443;28;20036;-62
2023/12/05 09:12:15;;;;;;;23.20;7.70;;;;;;;-6.07;92.23;101406.56;10441832;28;20052;-63
2023/12/05 09:17:18;;;;;;;27.90;10.32;;;;;;;-6.13;91.94;101412.50;10436579;28;20033;-63
2023/12/05 09:22:21;;;;;;;26.13;8.57;;;;;;;-6.13;92.09;101418.69;10436038;28;20514;-63
2023/12/05 09:27:23;;;;;;;21.83;8.63;;;;;;;-6.11;91.90;101416.69;10409332;28;20421;-63
2023/12/05 09:32:26;;;;;;;21.38;8.60;;;;;;;-6.23;92.12;101419.78;10426591;28;20053;-63
2023/12/05 09:37:29;;;;;;;17.13;8.20;;;;;;;-6.60;92.00;101426.03;10449133;28;20524;-63
2023/12/05 09:42:35;;;;;;;22.98;9.57;;;;;;;-6.57;93.06;101431.13;10449329;28;20045;-63
2023/12/05 09:47:38;;;;;;;20.40;7.72;;;;;;;-6.40;93.38;101430.28;10448972;28;20532;-64
2023/12/05 09:52:43;;;;;;;20.67;8.27;;;;;;;-6.36;92.82;101429.97;10445291;28;20552;-63
2023/12/05 09:57:47;;;;;;;20.52;8.88;;;;;;;-6.49;92.58;101433.84;10447199;28;20042;-64
2023/12/05 10:02:54;;;;;;;18.58;8.15;;;;;;;-6.70;92.56;101425.28;10456610;28;20049;-63
2023/12/05 10:07:56;;;;;;;19.73;8.32;;;;;;;-6.52;93.42;101425.31;10489010;28;20029;-63
2023/12/05 10:12:59;;;;;;;23.13;9.38;;;;;;;-6.41;93.45;101436.63;10487774;28;20416;-63
2023/12/05 10:18:02;;;;;;;19.23;8.23;;;;;;;-6.54;93.29;101438.81;10411985;28;20060;-63
2023/12/05 10:23:05;;;;;;;18.77;7.30;;;;;;;-6.48;92.15;101445.38;10405083;28;20046;-63
2023/12/05 10:28:08;;;;;;;20.77;8.05;;;;;;;-6.51;92.16;101445.69;10407090;28;20052;-63
2023/12/05 10:33:14;;;;;;;19.42;8.00;;;;;;;-6.47;91.98;101447.03;10408595;28;20536;-63
2023/12/05 10:38:18;;;;;;;19.92;7.85;;;;;;;-6.53;91.42;101448.50;10443230;28;20412;-63
2023/12/05 10:43:23;;;;;;;16.02;6.97;;;;;;;-6.52;91.29;101452.84;10446354;28;20049;-63
2023/12/05 10:48:25;;;;;;;21.17;7.75;;;;;;;-6.49;90.92;101465.06;10438613;28;20033;-63
2023/12/05 10:53:28;;;;;;;14.20;6.65;;;;;;;-6.57;90.67;101463.16;10413806;28;20045;-63
2023/12/05 10:58:30;;;;;;;15.95;6.93;;;;;;;-6.70;90.39;101468.81;10404861;28;20044;-63
2023/12/05 11:03:33;;;;;;;12.68;6.38;;;;;;;-6.79;90.47;101479.53;10404454;28;20041;-61
2023/12/05 11:08:36;;;;;;;12.23;5.60;;;;;;;-6.77;90.73;101488.22;10407854;28;20038;-61
2023/12/05 11:13:39;;;;;;;13.77;7.00;;;;;;;-6.83;90.61;101481.66;10404325;28;20049;-61
2023/12/05 11:18:43;;;;;;;13.48;6.03;;;;;;;-6.82;90.83;101485.19;10404018;28;20417;-63
2023/12/05 11:24:34;;;;;;;14.27;6.57;;;;;;;-6.76;90.84;101493.44;10407085;28;20048;-62
2023/12/05 11:29:54;;;;;;;15.23;6.53;;;;;;;-6.79;90.08;101492.88;10412586;28;20058;-62
2023/12/05 11:35:20;;;;;;;12.52;5.72;;;;;;;-6.89;89.44;101495.59;10410642;28;20044;-62
2023/12/05 11:40:22;;;;;;;10.18;5.88;;;;;;;-6.81;89.94;101492.19;10448893;28;20049;-62
2023/12/05 11:45:25;;;;;;;11.27;5.35;;;;;;;-6.70;90.16;101494.69;10439465;28;20037;-63
2023/12/05 11:50:42;;;;;;;9.85;4.97;;;;;;;-6.62;88.99;101497.44;10402117;28;20045;-63
2023/12/05 11:55:47;;;;;;;9.35;5.13;;;;;;;-6.78;88.85;101492.72;10402689;28;20065;-63
2023/12/05 12:00:51;;;;;;;10.18;4.45;;;;;;;-6.82;89.17;101501.19;10402823;28;20057;-62
2023/12/05 12:06:03;;;;;;;12.23;4.28;;;;;;;-6.76;88.88;101508.63;10429220;28;20479;-64
2023/12/05 12:11:05;;;;;;;6.85;3.67;;;;;;;-6.73;88.95;101505.66;10410731;28;20046;-63
2023/12/05 12:16:12;;;;;;;11.98;4.88;;;;;;;-6.84;89.14;101509.34;10401747;28;20042;-62
2023/12/05 12:21:14;;;;;;;12.00;4.38;;;;;;;-6.70;89.32;101516.03;10413651;28;20056;-63
2023/12/05 12:26:19;;;;;;;10.43;4.40;;;;;;;-6.70;89.12;101521.38;10406506;28;20513;-62
2023/12/05 12:31:25;;;;;;;8.18;3.78;;;;;;;-6.81;89.22;101519.72;10430604;28;20505;-62
2023/12/05 12:36:27;;;;;;;10.68;5.32;;;;;;;-6.77;88.66;101523.78;10441818;28;20038;-62
2023/12/05 12:41:30;;;;;;;11.70;5.45;;;;;;;-6.81;88.53;101529.53;10429052;28;20053;-63
2023/12/05 12:46:33;;;;;;;10.05;4.93;;;;;;;-6.83;88.36;101544.88;10428443;28;20030;-62
2023/12/05 12:51:38;;;;;;;10.93;5.63;;;;;;;-6.70;88.24;101548.91;10402574;28;20033;-62
2023/12/05 12:56:41;;;;;;;12.27;4.95;;;;;;;-6.75;87.76;101553.00;10417418;28;20038;-63
2023/12/05 13:01:52;;;;;;;9.82;4.32;;;;;;;-6.78;87.63;101545.25;10467544;28;20037;-63
2023/12/05 13:06:54;;;;;;;9.93;4.75;;;;;;;-6.77;87.44;101541.59;10438389;28;20052;-63
2023/12/05 13:11:57;;;;;;;9.43;4.82;;;;;;;-6.85;86.92;101544.19;10440600;28;20041;-62
2023/12/05 13:17:06;;;;;;;10.65;4.40;;;;;;;-6.89;86.54;101546.31;10432931;28;20034;-63
2023/12/05 13:22:09;;;;;;;6.57;4.35;;;;;;;-6.91;86.76;101553.63;10441271;28;20048;-62
2023/12/05 13:27:15;;;;;;;10.45;4.65;;;;;;;-6.95;86.67;101556.69;10422485;28;20528;-62
2023/12/05 13:32:18;;;;;;;14.15;5.40;;;;;;;-6.91;86.73;101560.78;10439302;28;20037;-63
2023/12/05 13:37:20;;;;;;;9.40;4.97;;;;;;;-6.94;87.44;101561.91;10440122;28;20029;-62
2023/12/05 13:42:23;;;;;;;11.02;4.72;;;;;;;-6.88;87.39;101568.47;10438249;28;20053;-63
2023/12/05 13:47:27;;;;;;;8.68;4.40;;;;;;;-6.87;87.39;101572.84;10433484;28;20037;-60
2023/12/05 13:52:29;;;;;;;7.50;3.90;;;;;;;-6.78;86.49;101574.63;10424579;28;20041;-62
2023/12/05 13:57:32;;;;;;;9.43;3.65;;;;;;;-6.80;86.71;101574.75;10433396;28;20032;-67
2023/12/05 14:02:36;;;;;;;6.45;4.18;;;;;;;-6.78;86.80;101582.63;10436862;28;20518;-62
2023/12/05 14:07:39;;;;;;;7.13;3.92;;;;;;;-6.83;86.99;101584.88;10438018;28;20041;-63
2023/12/05 14:12:41;;;;;;;9.82;4.72;;;;;;;-6.79;87.41;101591.63;10443929;28;20045;-65
2023/12/05 14:17:44;;;;;;;7.88;4.32;;;;;;;-6.69;86.68;101603.13;10442007;28;20038;-64
2023/12/05 14:22:47;;;;;;;9.15;4.10;;;;;;;-6.77;86.70;101594.97;10432974;28;20037;-64
2023/12/05 14:27:50;;;;;;;9.43;4.13;;;;;;;-6.84;86.78;101601.88;10446666;28;20120;-63
2023/12/05 14:32:53;;;;;;;7.78;3.85;;;;;;;-6.77;86.55;101613.66;10443131;28;20049;-63
2023/12/05 14:37:56;;;;;;;6.03;3.80;;;;;;;-6.78;86.68;101610.16;10447345;28;20044;-63
2023/12/05 14:43:00;;;;;;;4.90;3.38;;;;;;;-6.80;86.43;101611.28;10435603;28;20041;-62
2023/12/05 14:48:04;;;;;;;10.38;4.78;;;;;;;-6.71;85.95;101611.28;10438712;28;20045;-63
2023/12/05 14:53:11;;;;;;;7.18;3.92;;;;;;;-6.65;85.78;101617.84;10445051;28;20052;-63
2023/12/05 14:58:14;;;;;;;6.22;4.32;;;;;;;-6.56;85.72;101618.81;10440697;28;20037;-64
2023/12/05 15:03:16;;;;;;;11.27;5.40;;;;;;;-6.66;85.15;101626.84;10448674;28;20425;-66
2023/12/05 15:08:19;;;;;;;8.55;3.80;;;;;;;-6.64;84.74;101621.34;10438425;28;20042;-66
2023/12/05 15:13:22;;;;;;;11.73;5.47;;;;;;;-6.66;85.54;101639.34;10436811;28;20041;-66
2023/12/05 15:18:24;;;;;;;8.70;4.88;;;;;;;-6.74;85.41;101645.41;10441822;28;20531;-66
2023/12/05 15:23:28;;;;;;;9.52;5.15;;;;;;;-6.65;85.64;101644.53;10428588;28;20038;-65
2023/12/05 15:28:33;;;;;;;10.15;6.90;;;;;;;-6.66;85.71;101639.34;10435732;28;20068;-63
2023/12/05 15:33:35;;;;;;;12.30;6.80;;;;;;;-6.61;85.80;101642.41;10437081;28;20120;-63
2023/12/05 15:38:42;;;;;;;13.68;6.93;;;;;;;-6.63;85.61;101658.56;10431677;28;20033;-63
2023/12/05 15:43:45;;;;;;;12.15;6.93;;;;;;;-6.61;85.83;101656.59;10440958;28;20445;-63
2023/12/05 15:48:47;;;;;;;11.55;7.03;;;;;;;-6.59;86.13;101654.66;10438444;28;20037;-63
2023/12/05 15:53:50;;;;;;;12.75;7.43;;;;;;;-6.57;85.80;101671.38;10440656;28;20665;-64
2023/12/05 15:58:52;;;;;;;12.55;6.63;;;;;;;-6.54;85.62;101670.22;10439479;28;20048;-64
2023/12/05 16:03:55;;;;;;;10.73;7.50;;;;;;;-6.45;85.01;101672.00;10440704;28;20045;-64
2023/12/05 16:08:57;;;;;;;9.50;5.63;;;;;;;-6.49;85.01;101676.81;10441241;28;20041;-63
2023/12/05 16:14:00;;;;;;;8.15;5.43;;;;;;;-6.40;85.52;101678.63;10428782;28;20041;-64
2023/12/05 16:19:03;;;;;;;11.55;5.70;;;;;;;-6.33;85.12;101676.19;10442288;28;20033;-64
2023/12/05 16:24:06;;;;;;;9.35;5.55;;;;;;;-6.39;85.46;101684.81;10443149;28;20045;-63
2023/12/05 16:29:08;;;;;;;8.13;5.40;;;;;;;-6.35;85.75;101688.03;10432551;28;20045;-64
2023/12/05 16:34:11;;;;;;;10.07;5.30;;;;;;;-6.43;85.66;101694.06;10439455;28;20424;-64
2023/12/05 16:39:13;;;;;;;11.07;5.75;;;;;;;-6.50;85.46;101711.66;10436003;28;20033;-64
2023/12/05 16:44:15;;;;;;;8.27;5.25;;;;;;;-6.65;85.53;101705.09;10438040;28;20061;-64
2023/12/05 16:49:18;;;;;;;8.85;5.25;;;;;;;-6.64;85.48;101707.59;10435983;28;20037;-64
2023/12/05 16:54:20;;;;;;;10.10;5.13;;;;;;;-6.80;85.69;101708.19;10438019;28;20045;-65
2023/12/05 16:59:23;;;;;;;8.13;5.30;;;;;;;-6.80;85.49;101718.03;10438176;28;20038;-64
2023/12/05 17:04:25;;;;;;;11.88;5.65;;;;;;;-6.83;85.65;101729.81;10434135;28;20425;-64
2023/12/05 17:09:27;;;;;;;10.60;6.07;;;;;;;-6.80;85.95;101723.34;10434563;28;20603;-63
2023/12/05 17:14:31;;;;;;;8.38;5.22;;;;;;;-6.70;85.73;101721.53;10437402;28;20436;-63
2023/12/05 17:19:34;;;;;;;8.45;5.32;;;;;;;-6.77;85.67;101717.72;10439001;28;20034;-63
2023/12/05 17:24:36;;;;;;;11.65;6.07;;;;;;;-6.63;85.93;101719.97;10433017;28;20041;-64
2023/12/05 17:29:38;;;;;;;12.38;6.22;;;;;;;-6.74;86.49;101710.31;10440212;28;20518;-63
2023/12/05 17:34:41;;;;;;;12.63;6.75;;;;;;;-6.72;85.87;101715.50;10436474;28;20050;-63
2023/12/05 17:39:45;;;;;;;14.20;6.68;;;;;;;-6.83;87.09;101727.16;10436101;28;20044;-62
2023/12/05 17:44:51;;;;;;;12.82;6.35;;;;;;;-6.85;87.54;101739.81;10442132;28;20045;-63
2023/12/05 17:49:54;;;;;;;14.15;6.55;;;;;;;-6.86;88.48;101746.13;10440654;28;20037;-61
2023/12/05 17:54:57;;;;;;;10.82;5.90;;;;;;;-6.89;88.83;101742.91;10443329;28;20053;-64
2023/12/05 17:59:59;;;;;;;11.48;6.20;;;;;;;-6.99;90.16;101746.38;10440781;28;20412;-64
2023/12/05 18:05:02;;;;;;;11.27;6.00;;;;;;;-6.97;90.28;101756.91;10446448;28;20037;-65
2023/12/05 18:10:05;;;;;;;14.02;6.97;;;;;;;-7.00;90.57;101750.03;10448595;28;20037;-64
2023/12/05 18:15:09;;;;;;;12.88;6.57;;;;;;;-6.97;91.46;101759.59;10444770;28;20034;-61
2023/12/05 18:20:11;;;;;;;13.48;6.85;;;;;;;-7.07;91.10;101762.28;10435155;28;20040;-62
2023/12/05 18:25:14;;;;;;;14.30;7.45;;;;;;;-7.24;90.56;101770.94;10446361;28;20157;-62
2023/12/05 18:30:17;;;;;;;14.40;6.70;;;;;;;-7.14;90.00;101773.63;10440866;28;20037;-63
2023/12/05 18:35:19;;;;;;;13.50;7.40;;;;;;;-7.25;89.71;101779.94;10445919;28;20044;-60
2023/12/05 18:40:22;;;;;;;16.60;7.63;;;;;;;-7.37;89.79;101789.00;10443052;28;20036;-62
2023/12/05 18:45:24;;;;;;;13.73;7.82;;;;;;;-7.39;90.21;101790.97;10441409;28;20667;-61
2023/12/05 18:50:28;;;;;;;15.88;8.50;;;;;;;-7.55;89.57;101794.16;10438744;28;20033;-61
2023/12/05 18:55:31;;;;;;;12.80;7.13;;;;;;;-7.48;89.91;101797.09;10446669;28;20044;-61
2023/12/05 19:00:35;;;;;;;12.20;6.90;;;;;;;-7.76;90.70;101804.88;10444833;28;20060;-63
2023/12/05 19:05:37;;;;;;;11.40;6.93;;;;;;;-7.79;91.38;101797.16;10444234;28;20037;-60
2023/12/05 19:10:40;;;;;;;10.73;6.88;;;;;;;-7.74;91.57;101802.91;10443996;28;20037;-61
2023/12/05 19:15:43;;;;;;;13.48;7.40;;;;;;;-7.55;91.21;101810.16;10445465;28;20535;-61
2023/12/05 19:20:45;;;;;;;14.05;7.15;;;;;;;-7.59;91.55;101806.06;10444259;28;20811;-62
2023/12/05 19:25:47;;;;;;;12.45;7.00;;;;;;;-7.65;91.85;101815.41;10445059;28;20044;-61
2023/12/05 19:30:49;;;;;;;17.10;8.07;;;;;;;-7.65;92.25;101828.75;10440221;28;20049;-61
2023/12/05 19:35:52;;;;;;;15.82;8.18;;;;;;;-7.68;92.25;101821.03;10439065;28;20037;-62
2023/12/05 19:40:54;;;;;;;13.10;7.68;;;;;;;-7.64;93.17;101825.09;10439027;28;20042;-62
2023/12/05 19:45:57;;;;;;;14.85;7.20;;;;;;;-7.67;93.32;101824.53;10444595;28;20037;-63
2023/12/05 19:50:59;;;;;;;12.50;6.72;;;;;;;-7.47;94.45;101828.13;10439192;28;20048;-62
2023/12/05 19:56:02;;;;;;;14.77;7.28;;;;;;;-7.44;94.46;101830.53;10443596;28;20624;-62
2023/12/05 20:01:04;;;;;;;11.65;6.72;;;;;;;-7.46;94.39;101833.34;10438355;28;20042;-62
2023/12/05 20:06:07;;;;;;;13.77;6.38;;;;;;;-7.51;94.77;101835.53;10441732;28;20034;-61
2023/12/05 20:11:12;;;;;;;14.68;7.13;;;;;;;-7.30;95.87;101843.47;10443620;28;20041;-61
2023/12/05 20:16:15;;;;;;;16.20;7.72;;;;;;;-7.45;95.89;101850.19;10429383;28;20033;-61
2023/12/05 20:21:18;;;;;;;14.07;7.55;;;;;;;-7.38;96.16;101845.97;10432663;28;20041;-63
2023/12/05 20:26:21;;;;;;;14.52;7.47;;;;;;;-7.44;95.95;101851.88;10437700;28;20029;-65
2023/12/05 20:31:24;;;;;;;15.40;8.38;;;;;;;-7.36;96.26;101860.88;10436956;28;20057;-64
2023/12/05 20:36:26;;;;;;;18.10;8.30;;;;;;;-7.27;96.11;101866.38;10436093;28;20056;-63
2023/12/05 20:41:28;;;;;;;19.85;9.35;;;;;;;-7.04;95.74;101870.50;10432924;28;20048;-64
2023/12/05 20:46:31;;;;;;;18.02;9.55;;;;;;;-7.12;95.42;101865.84;10439983;28;20440;-64
2023/12/05 20:51:33;;;;;;;19.02;9.07;;;;;;;-6.87;94.19;101864.50;10438918;28;20068;-63
2023/12/05 20:56:36;;;;;;;20.20;8.77;;;;;;;-6.85;94.09;101867.88;10441526;28;20040;-63
2023/12/05 21:01:38;;;;;;;20.58;8.35;;;;;;;-6.85;93.92;101875.03;10439113;28;20045;-66
2023/12/05 21:06:40;;;;;;;21.20;9.18;;;;;;;-6.89;94.38;101881.66;10429468;28;20552;-65
2023/12/05 21:11:43;;;;;;;17.85;8.40;;;;;;;-6.82;94.66;101874.75;10445839;28;20037;-66
2023/12/05 21:16:45;;;;;;;15.65;8.52;;;;;;;-6.73;94.53;101885.47;10438717;28;20037;-65
2023/12/05 21:21:47;;;;;;;20.20;9.18;;;;;;;-6.78;94.09;101892.19;10439788;28;20045;-64
2023/12/05 21:26:50;;;;;;;17.73;8.93;;;;;;;-6.85;94.29;101894.56;10445562;28;20456;-64
2023/12/05 21:31:52;;;;;;;17.90;9.00;;;;;;;-6.70;94.12;101900.34;10441473;28;20053;-66
2023/12/05 21:36:55;;;;;;;19.80;9.23;;;;;;;-6.65;93.37;101892.78;10441310;28;20417;-62
2023/12/05 21:41:58;;;;;;;17.30;9.85;;;;;;;-6.77;93.29;101884.06;10441747;28;20095;-63
2023/12/05 21:47:00;;;;;;;17.60;9.77;;;;;;;-6.78;93.30;101887.69;10441711;28;20424;-65
2023/12/05 21:52:03;;;;;;;20.88;10.70;;;;;;;-6.85;92.76;101886.56;10447602;28;20516;-64
2023/12/05 21:57:06;;;;;;;23.35;10.73;;;;;;;-6.73;92.81;101888.13;10444394;28;20034;-63
2023/12/05 22:02:08;;;;;;;25.15;11.52;;;;;;;-6.68;92.55;101895.72;10443961;28;20041;-63
2023/12/05 22:07:10;;;;;;;25.13;11.32;;;;;;;-6.84;92.30;101906.09;10446351;28;20049;-65
2023/12/05 22:12:13;;;;;;;21.98;11.48;;;;;;;-6.81;92.50;101913.81;10442331;28;20843;-65
2023/12/05 22:17:15;;;;;;;19.55;10.48;;;;;;;-6.71;92.79;101912.84;10437006;28;20036;-65
2023/12/05 22:22:17;;;;;;;19.25;9.32;;;;;;;-6.75;91.84;101921.28;10443360;28;20033;-64
2023/12/05 22:27:20;;;;;;;22.33;10.32;;;;;;;-6.91;91.49;101931.63;10421382;28;20046;-64
2023/12/05 22:32:22;;;;;;;21.05;9.57;;;;;;;-6.84;91.45;101935.44;10418806;28;20042;-64
2023/12/05 22:37:25;;;;;;;19.70;8.98;;;;;;;-6.82;91.62;101936.13;10405774;28;20038;-64
2023/12/05 22:42:27;;;;;;;20.83;10.40;;;;;;;-6.66;91.40;101939.13;10425562;28;20119;-64
2023/12/05 22:47:30;;;;;;;17.75;8.90;;;;;;;-6.95;90.78;101944.38;10426900;28;20038;-64
2023/12/05 22:52:32;;;;;;;16.45;8.70;;;;;;;-7.23;90.71;101950.47;10417834;28;20065;-63
2023/12/05 22:57:35;;;;;;;12.88;7.20;;;;;;;-7.35;90.78;101949.69;10442263;28;20048;-64